Terminal Aerodrome Forecast
Issued by NWS Houston/Galveston, TX

Home | Current Version | Previous Version | Text Only | Print | Product List | Glossary On
Versions: 1 2 3 4 5 6 7 8 9 10 11 12 13 14 15 16 17 18 19 20 21 22 23 24 25 26 27 28 29 30 31 32 33 34 35 36 37 38 39
000
FTUS44 KHGX 171152
TAFGLS
TAF
KGLS 171152Z 1712/1812 00000KT P6SM VCSH SCT016 BKN027 OVC070
      TEMPO 1712/1715 VRB05G15KT 4SM SHRA BKN020 BKN060 OVC250
     FM171500 17007KT P6SM VCTS SCT025CB BKN250
     FM172100 18005KT P6SM FEW020 BKN250
     FM180300 17005KT P6SM VCSH SCT020 BKN250
      TEMPO 1808/1812 SHRA=

USA.gov is the U.S. government's official web portal to all federal, state and local government web resources and services.